createdAt,value
2023-02-19T00:00:40.691Z,11.74
2023-02-19T00:01:40.633Z,11.82
2023-02-19T00:02:40.575Z,11.83
2023-02-19T00:03:40.541Z,11.75
2023-02-19T00:04:40.497Z,11.82
2023-02-19T00:05:40.432Z,11.77
2023-02-19T00:06:40.363Z,11.80
2023-02-19T00:07:40.296Z,11.77
2023-02-19T00:08:40.257Z,11.77
2023-02-19T00:09:40.189Z,11.77
2023-02-19T00:10:40.155Z,11.74
2023-02-19T00:11:40.070Z,11.77
2023-02-19T00:12:40.008Z,11.78
2023-02-19T00:13:39.942Z,11.72
2023-02-19T00:14:39.890Z,11.77
2023-02-19T00:15:39.853Z,11.77
2023-02-19T00:16:39.777Z,11.74
2023-02-19T00:17:39.718Z,11.74
2023-02-19T00:18:39.688Z,11.74
2023-02-19T00:19:39.600Z,11.77
2023-02-19T00:20:39.539Z,11.77
2023-02-19T00:21:39.482Z,11.82
2023-02-19T00:22:39.427Z,11.72
2023-02-19T00:23:39.370Z,11.71
2023-02-19T00:24:39.310Z,11.77
2023-02-19T00:25:39.279Z,11.78
2023-02-19T00:26:39.192Z,11.83
2023-02-19T00:27:39.144Z,11.75
2023-02-19T00:28:39.081Z,11.82
2023-02-19T00:29:39.026Z,11.71
2023-02-19T00:30:38.968Z,11.77
2023-02-19T00:31:39.076Z,11.78
2023-02-19T00:32:38.857Z,11.77
2023-02-19T00:33:38.798Z,11.71
2023-02-19T00:34:38.737Z,11.85
2023-02-19T00:35:38.683Z,11.75
2023-02-19T00:36:38.622Z,11.75
2023-02-19T00:37:38.572Z,11.78
2023-02-19T00:38:38.508Z,11.75
2023-02-19T00:39:38.464Z,11.67
2023-02-19T00:40:38.393Z,11.72
2023-02-19T00:41:38.345Z,11.70
2023-02-19T00:42:38.277Z,11.67
2023-02-19T00:43:38.228Z,11.71
2023-02-19T00:44:38.167Z,11.70
2023-02-19T00:45:38.104Z,11.83
2023-02-19T00:46:38.122Z,11.71
2023-02-19T00:47:38.010Z,11.75
2023-02-19T00:48:37.940Z,11.67
2023-02-19T00:49:37.902Z,11.72
2023-02-19T00:50:37.817Z,11.65
2023-02-19T00:51:37.765Z,11.65
2023-02-19T00:52:37.723Z,11.72
2023-02-19T00:53:37.656Z,11.68
2023-02-19T00:54:37.593Z,11.70
2023-02-19T00:55:37.530Z,11.71
2023-02-19T00:56:37.483Z,11.75
2023-02-19T00:57:37.416Z,11.67
2023-02-19T00:58:37.358Z,11.65
2023-02-19T00:59:37.305Z,11.71
2023-02-19T01:00:37.242Z,11.64
2023-02-19T01:01:37.237Z,11.70
2023-02-19T01:02:37.124Z,11.72
2023-02-19T01:03:37.077Z,11.65
2023-02-19T01:04:37.050Z,11.70
2023-02-19T01:05:36.963Z,11.64
2023-02-19T01:06:36.888Z,11.71
2023-02-19T01:07:36.846Z,11.68
2023-02-19T01:08:36.793Z,11.72
2023-02-19T01:09:36.745Z,11.71
2023-02-19T01:10:36.690Z,11.74
2023-02-19T01:11:36.606Z,11.68
2023-02-19T01:12:36.549Z,11.67
2023-02-19T01:13:36.496Z,11.78
2023-02-19T01:14:36.430Z,11.65
2023-02-19T01:15:36.381Z,11.70
2023-02-19T01:16:36.317Z,11.72
2023-02-19T01:17:36.258Z,11.70
2023-02-19T01:18:36.208Z,11.68
2023-02-19T01:19:36.146Z,11.62
2023-02-19T01:20:36.085Z,11.67
2023-02-19T01:21:36.041Z,11.72
2023-02-19T01:22:35.972Z,11.65
2023-02-19T01:23:35.909Z,11.67
2023-02-19T01:24:35.853Z,11.72
2023-02-19T01:25:35.797Z,11.70
2023-02-19T01:26:35.749Z,11.72
2023-02-19T01:27:35.680Z,11.72
2023-02-19T01:28:35.620Z,11.65
2023-02-19T01:29:35.569Z,11.65
2023-02-19T01:30:35.557Z,11.64
2023-02-19T01:31:35.611Z,11.67
2023-02-19T01:32:35.398Z,11.67
2023-02-19T01:33:35.335Z,11.65
2023-02-19T01:34:35.289Z,11.72
2023-02-19T01:35:35.223Z,11.65
2023-02-19T01:36:35.166Z,11.72
2023-02-19T01:37:35.103Z,11.62
2023-02-19T01:38:35.050Z,11.64
2023-02-19T01:39:34.991Z,11.64
2023-02-19T01:40:34.948Z,11.70
2023-02-19T01:41:34.873Z,11.72
2023-02-19T01:42:34.819Z,11.74
2023-02-19T01:43:34.772Z,11.71
2023-02-19T01:44:34.699Z,11.62
2023-02-19T01:45:34.645Z,11.65
2023-02-19T01:46:34.669Z,11.61
2023-02-19T01:47:34.535Z,11.67
2023-02-19T01:48:34.476Z,11.62
2023-02-19T01:49:34.416Z,11.64
2023-02-19T01:50:34.353Z,11.62
2023-02-19T01:51:34.309Z,11.62
2023-02-19T01:52:34.243Z,11.65
2023-02-19T01:53:34.192Z,11.65
2023-02-19T01:54:34.130Z,11.64
2023-02-19T01:55:34.070Z,11.64
2023-02-19T01:56:34.011Z,11.68
2023-02-19T01:57:33.961Z,11.65
2023-02-19T01:58:33.893Z,11.71
2023-02-19T01:59:33.845Z,11.64
2023-02-19T02:00:33.789Z,11.61
2023-02-19T02:01:33.726Z,11.62
2023-02-19T02:02:33.678Z,11.62
2023-02-19T02:03:33.612Z,11.64
2023-02-19T02:04:33.549Z,11.56
2023-02-19T02:05:33.490Z,11.62
2023-02-19T02:06:33.435Z,11.57
2023-02-19T02:07:33.378Z,11.64
2023-02-19T02:08:33.319Z,11.59
2023-02-19T02:09:33.275Z,11.59
2023-02-19T02:10:33.203Z,11.61
2023-02-19T02:11:33.147Z,11.62
2023-02-19T02:12:33.092Z,11.61
2023-02-19T02:13:33.035Z,11.59
2023-02-19T02:14:32.975Z,11.62
2023-02-19T02:15:32.913Z,11.65
2023-02-19T02:16:32.883Z,11.61
2023-02-19T02:17:32.800Z,11.57
2023-02-19T02:18:32.753Z,11.59
2023-02-19T02:19:32.697Z,11.65
2023-02-19T02:20:32.640Z,11.64
2023-02-19T02:21:32.601Z,11.54
2023-02-19T02:22:32.519Z,11.59
2023-02-19T02:23:32.478Z,11.62
2023-02-19T02:24:32.411Z,11.59
2023-02-19T02:25:32.345Z,11.59
2023-02-19T02:26:32.294Z,11.61
2023-02-19T02:27:32.230Z,11.59
2023-02-19T02:28:32.175Z,11.59
2023-02-19T02:29:32.108Z,11.54
2023-02-19T02:30:32.155Z,11.54
2023-02-19T02:31:32.112Z,11.54
2023-02-19T02:32:31.948Z,11.57
2023-02-19T02:33:31.885Z,11.54
2023-02-19T02:34:31.831Z,11.57
2023-02-19T02:35:31.786Z,11.56
2023-02-19T02:36:31.707Z,11.61
2023-02-19T02:37:31.654Z,11.52
2023-02-19T02:38:31.591Z,11.53
2023-02-19T02:39:31.533Z,11.59
2023-02-19T02:40:31.477Z,11.56
2023-02-19T02:41:31.416Z,11.54
2023-02-19T02:42:31.361Z,11.59
2023-02-19T02:43:31.306Z,11.56
2023-02-19T02:44:31.249Z,11.50
2023-02-19T02:45:31.217Z,11.54
2023-02-19T02:46:31.137Z,11.53
2023-02-19T02:47:31.076Z,11.56
2023-02-19T02:48:31.019Z,11.53
2023-02-19T02:49:30.958Z,11.56
2023-02-19T02:50:30.907Z,11.59
2023-02-19T02:51:30.857Z,11.53
2023-02-19T02:52:30.800Z,11.54
2023-02-19T02:53:30.723Z,11.53
2023-02-19T02:54:30.726Z,11.53
2023-02-19T02:55:30.730Z,11.56
2023-02-19T02:56:30.564Z,11.54
2023-02-19T02:57:30.498Z,11.49
2023-02-19T02:58:30.440Z,11.50
2023-02-19T02:59:30.385Z,11.52
2023-02-19T03:00:30.324Z,11.56
2023-02-19T03:01:30.268Z,11.59
2023-02-19T03:02:30.296Z,11.54
2023-02-19T03:03:30.151Z,11.53
2023-02-19T03:04:30.094Z,11.49
2023-02-19T03:05:30.039Z,11.53
2023-02-19T03:06:29.978Z,11.49
2023-02-19T03:07:29.924Z,11.47
2023-02-19T03:08:29.865Z,11.59
2023-02-19T03:09:29.804Z,11.47
2023-02-19T03:10:29.747Z,11.52
2023-02-19T03:11:29.685Z,11.52
2023-02-19T03:12:29.644Z,11.52
2023-02-19T03:13:29.574Z,11.47
2023-02-19T03:14:29.526Z,11.49
2023-02-19T03:15:29.465Z,11.53
2023-02-19T03:16:29.444Z,11.54
2023-02-19T03:17:29.341Z,11.57
2023-02-19T03:18:29.285Z,11.52
2023-02-19T03:19:29.228Z,11.50
2023-02-19T03:20:29.166Z,11.50
2023-02-19T03:21:29.115Z,11.53
2023-02-19T03:22:29.064Z,11.53
2023-02-19T03:23:28.994Z,11.50
2023-02-19T03:24:28.942Z,11.46
2023-02-19T03:25:28.887Z,11.49
2023-02-19T03:26:28.819Z,11.53
2023-02-19T03:27:28.768Z,11.52
2023-02-19T03:28:28.706Z,11.50
2023-02-19T03:29:28.717Z,11.50
2023-02-19T03:30:28.674Z,11.46
2023-02-19T03:31:28.619Z,11.47
2023-02-19T03:32:28.476Z,11.44
2023-02-19T03:33:28.415Z,11.47
2023-02-19T03:34:28.362Z,11.50
2023-02-19T03:35:28.299Z,11.56
2023-02-19T03:36:28.248Z,11.53
2023-02-19T03:37:28.183Z,11.56
2023-02-19T03:38:28.127Z,11.39
2023-02-19T03:39:28.084Z,11.49
2023-02-19T03:40:28.012Z,11.46
2023-02-19T03:41:27.954Z,11.52
2023-02-19T03:42:27.897Z,11.46
2023-02-19T03:43:27.840Z,11.47
2023-02-19T03:44:27.788Z,11.46
2023-02-19T03:45:27.720Z,11.39
2023-02-19T03:46:27.661Z,11.44
2023-02-19T03:47:27.613Z,11.39
2023-02-19T03:48:27.547Z,11.39
2023-02-19T03:49:27.494Z,11.49
2023-02-19T03:50:27.434Z,11.52
2023-02-19T03:51:27.373Z,11.44
2023-02-19T03:52:27.334Z,11.39
2023-02-19T03:53:27.260Z,11.44
2023-02-19T03:54:27.210Z,11.38
2023-02-19T03:55:27.151Z,11.44
2023-02-19T03:56:27.089Z,11.41
2023-02-19T03:57:27.034Z,11.47
2023-02-19T03:58:26.974Z,11.44
2023-02-19T03:59:26.922Z,11.47
2023-02-19T04:00:26.860Z,11.44
2023-02-19T04:01:26.808Z,11.44
2023-02-19T04:02:26.757Z,11.46
2023-02-19T04:03:26.684Z,11.47
2023-02-19T04:04:26.653Z,11.47
2023-02-19T04:05:26.571Z,11.44
2023-02-19T04:06:26.518Z,11.46
2023-02-19T04:07:26.456Z,11.44
2023-02-19T04:08:26.400Z,11.41
2023-02-19T04:09:26.339Z,11.46
2023-02-19T04:10:26.284Z,11.50
2023-02-19T04:11:26.228Z,11.50
2023-02-19T04:12:26.167Z,11.43
2023-02-19T04:13:26.115Z,11.44
2023-02-19T04:14:26.071Z,11.47
2023-02-19T04:15:25.997Z,11.44
2023-02-19T04:16:25.951Z,11.39
2023-02-19T04:17:25.884Z,11.47
2023-02-19T04:18:25.819Z,11.49
2023-02-19T04:19:25.761Z,11.43
2023-02-19T04:20:25.708Z,11.39
2023-02-19T04:21:25.648Z,11.39
2023-02-19T04:22:25.594Z,11.49
2023-02-19T04:23:25.535Z,11.39
2023-02-19T04:24:25.478Z,11.43
2023-02-19T04:25:25.420Z,11.47
2023-02-19T04:26:25.365Z,11.36
2023-02-19T04:27:25.307Z,11.47
2023-02-19T04:28:25.243Z,11.43
2023-02-19T04:29:25.194Z,11.38
2023-02-19T04:30:25.166Z,11.43
2023-02-19T04:31:25.163Z,11.41
2023-02-19T04:32:25.007Z,11.44
2023-02-19T04:33:24.947Z,11.44
2023-02-19T04:34:24.890Z,11.43
2023-02-19T04:35:24.833Z,11.46
2023-02-19T04:36:24.780Z,11.44
2023-02-19T04:37:24.792Z,11.35
2023-02-19T04:38:24.658Z,11.38
2023-02-19T04:39:24.605Z,11.31
2023-02-19T04:40:24.544Z,11.41
2023-02-19T04:41:24.486Z,11.43
2023-02-19T04:42:24.434Z,11.34
2023-02-19T04:43:24.374Z,11.44
2023-02-19T04:44:24.315Z,11.36
2023-02-19T04:45:24.255Z,11.41
2023-02-19T04:46:24.257Z,11.39
2023-02-19T04:47:24.165Z,11.36
2023-02-19T04:48:24.086Z,11.43
2023-02-19T04:49:24.023Z,11.35
2023-02-19T04:50:23.965Z,11.35
2023-02-19T04:51:23.908Z,11.36
2023-02-19T04:52:23.850Z,11.34
2023-02-19T04:53:23.793Z,11.39
2023-02-19T04:54:23.741Z,11.36
2023-02-19T04:55:23.686Z,11.36
2023-02-19T04:56:23.618Z,11.36
2023-02-19T04:57:23.559Z,11.36
2023-02-19T04:58:23.504Z,11.39
2023-02-19T04:59:23.443Z,11.38
2023-02-19T05:00:23.393Z,11.31
2023-02-19T05:01:23.347Z,11.28
2023-02-19T05:02:23.311Z,11.38
2023-02-19T05:03:23.209Z,11.35
2023-02-19T05:04:23.187Z,11.34
2023-02-19T05:05:23.099Z,11.34
2023-02-19T05:06:23.046Z,11.38
2023-02-19T05:07:22.983Z,11.35
2023-02-19T05:08:22.921Z,11.28
2023-02-19T05:09:22.873Z,11.34
2023-02-19T05:10:22.813Z,11.32
2023-02-19T05:11:22.753Z,11.35
2023-02-19T05:12:22.780Z,11.34
2023-02-19T05:13:22.641Z,11.35
2023-02-19T05:14:22.581Z,11.34
2023-02-19T05:15:22.519Z,11.39
2023-02-19T05:16:22.473Z,11.32
2023-02-19T05:17:22.402Z,11.35
2023-02-19T05:18:22.347Z,11.35
2023-02-19T05:19:22.283Z,11.32
2023-02-19T05:20:22.232Z,11.36
2023-02-19T05:21:22.176Z,11.36
2023-02-19T05:22:22.133Z,11.32
2023-02-19T05:23:22.057Z,11.35
2023-02-19T05:24:21.997Z,11.35
2023-02-19T05:25:21.940Z,11.35
2023-02-19T05:26:21.886Z,11.36
2023-02-19T05:27:21.839Z,11.31
2023-02-19T05:28:21.767Z,11.31
2023-02-19T05:29:21.747Z,11.38
2023-02-19T05:30:21.704Z,11.35
2023-02-19T05:31:21.675Z,11.31
2023-02-19T05:32:21.546Z,11.35
2023-02-19T05:33:21.481Z,11.36
2023-02-19T05:34:21.419Z,11.24
2023-02-19T05:35:21.357Z,11.28
2023-02-19T05:36:21.324Z,11.29
2023-02-19T05:37:21.244Z,11.28
2023-02-19T05:38:21.185Z,11.29
2023-02-19T05:39:21.131Z,11.35
2023-02-19T05:40:21.080Z,11.28
2023-02-19T05:41:21.015Z,11.34
2023-02-19T05:42:20.953Z,11.25
2023-02-19T05:43:20.895Z,11.34
2023-02-19T05:44:20.842Z,11.31
2023-02-19T05:45:20.785Z,11.27
2023-02-19T05:46:20.772Z,11.24
2023-02-19T05:47:20.707Z,11.24
2023-02-19T05:48:20.613Z,11.28
2023-02-19T05:49:20.551Z,11.32
2023-02-19T05:50:20.533Z,11.24
2023-02-19T05:51:20.435Z,11.24
2023-02-19T05:52:20.387Z,11.34
2023-02-19T05:53:20.316Z,11.29
2023-02-19T05:54:20.263Z,11.25
2023-02-19T05:55:20.208Z,11.24
2023-02-19T05:56:20.157Z,11.34
2023-02-19T05:57:20.090Z,11.31
2023-02-19T05:58:20.031Z,11.25
2023-02-19T05:59:19.973Z,11.24
2023-02-19T06:00:19.912Z,11.28
2023-02-19T06:01:19.942Z,11.20
2023-02-19T06:02:19.800Z,11.27
2023-02-19T06:03:19.736Z,11.27
2023-02-19T06:04:19.680Z,11.27
2023-02-19T06:05:19.620Z,11.20
2023-02-19T06:06:19.568Z,11.13
2023-02-19T06:07:19.504Z,11.24
2023-02-19T06:08:19.448Z,11.27
2023-02-19T06:09:19.393Z,11.19
2023-02-19T06:10:19.336Z,11.19
2023-02-19T06:11:19.289Z,11.25
2023-02-19T06:12:19.227Z,11.17
2023-02-19T06:13:19.163Z,11.16
2023-02-19T06:14:19.105Z,11.16
2023-02-19T06:15:19.048Z,11.19
2023-02-19T06:16:19.017Z,11.19
2023-02-19T06:17:18.927Z,11.20
2023-02-19T06:18:18.874Z,11.20
2023-02-19T06:19:18.819Z,11.19
2023-02-19T06:20:18.763Z,11.14
2023-02-19T06:21:18.695Z,11.16
2023-02-19T06:22:18.642Z,11.16
2023-02-19T06:23:18.586Z,11.14
2023-02-19T06:24:18.529Z,11.19
2023-02-19T06:25:18.468Z,11.24
2023-02-19T06:26:18.403Z,11.19
2023-02-19T06:27:18.368Z,11.19
2023-02-19T06:28:18.298Z,11.17
2023-02-19T06:29:18.235Z,11.13
2023-02-19T06:30:18.220Z,11.20
2023-02-19T06:31:18.365Z,11.14
2023-02-19T06:32:18.207Z,11.14
2023-02-19T06:33:18.003Z,11.16
2023-02-19T06:34:17.947Z,11.21
2023-02-19T06:35:17.891Z,11.19
2023-02-19T06:36:17.839Z,11.24
2023-02-19T06:37:17.788Z,11.14
2023-02-19T06:38:17.718Z,11.19
2023-02-19T06:39:17.662Z,11.14
2023-02-19T06:40:17.604Z,11.21
2023-02-19T06:41:17.542Z,11.20
2023-02-19T06:42:17.489Z,11.13
2023-02-19T06:43:17.434Z,11.20
2023-02-19T06:44:17.372Z,11.10
2023-02-19T06:45:17.316Z,11.16
2023-02-19T06:46:17.314Z,11.13
2023-02-19T06:47:17.203Z,11.21
2023-02-19T06:48:17.137Z,11.13
2023-02-19T06:49:17.082Z,11.24
2023-02-19T06:50:17.038Z,11.07
2023-02-19T06:51:16.966Z,11.06
2023-02-19T06:52:16.947Z,11.19
2023-02-19T06:53:16.858Z,11.17
2023-02-19T06:54:16.789Z,11.21
2023-02-19T06:55:16.745Z,11.13
2023-02-19T06:56:16.677Z,11.10
2023-02-19T06:57:16.619Z,11.11
2023-02-19T06:58:16.563Z,11.16
2023-02-19T06:59:16.502Z,11.10
2023-02-19T07:00:16.448Z,11.13
2023-02-19T07:01:16.432Z,11.16
2023-02-19T07:02:16.323Z,11.20
2023-02-19T07:03:16.270Z,11.10
2023-02-19T07:04:16.269Z,11.09
2023-02-19T07:05:16.150Z,11.16
2023-02-19T07:06:16.096Z,11.10
2023-02-19T07:07:16.061Z,11.13
2023-02-19T07:08:15.973Z,11.13
2023-02-19T07:09:15.920Z,11.16
2023-02-19T07:10:15.860Z,11.10
2023-02-19T07:11:15.802Z,11.13
2023-02-19T07:12:15.747Z,11.16
2023-02-19T07:13:15.685Z,11.14
2023-02-19T07:14:15.633Z,11.14
2023-02-19T07:15:15.569Z,11.13
2023-02-19T07:16:15.558Z,11.13
2023-02-19T07:17:15.457Z,11.16
2023-02-19T07:18:15.395Z,11.16
2023-02-19T07:19:15.342Z,11.19
2023-02-19T07:20:15.278Z,11.13
2023-02-19T07:21:15.228Z,11.16
2023-02-19T07:22:15.158Z,11.14
2023-02-19T07:23:15.106Z,11.13
2023-02-19T07:24:15.047Z,11.17
2023-02-19T07:25:14.990Z,11.17
2023-02-19T07:26:14.927Z,11.17
2023-02-19T07:27:14.869Z,11.11
2023-02-19T07:28:14.813Z,11.17
2023-02-19T07:29:14.760Z,11.13
2023-02-19T07:30:14.723Z,11.06
2023-02-19T07:31:14.996Z,11.09
2023-02-19T07:32:14.579Z,11.17
2023-02-19T07:33:14.525Z,11.06
2023-02-19T07:34:14.465Z,11.17
2023-02-19T07:35:14.408Z,11.10
2023-02-19T07:36:14.350Z,11.10
2023-02-19T07:37:14.295Z,11.09
2023-02-19T07:38:14.231Z,11.11
2023-02-19T07:39:14.178Z,11.10
2023-02-19T07:40:14.120Z,11.07
2023-02-19T07:41:14.307Z,11.13
2023-02-19T07:42:14.006Z,11.10
2023-02-19T07:43:13.943Z,11.09
2023-02-19T07:44:13.888Z,11.03
2023-02-19T07:45:13.834Z,11.13
2023-02-19T07:46:13.768Z,11.13
2023-02-19T07:47:13.724Z,11.09
2023-02-19T07:48:13.657Z,11.10
2023-02-19T07:49:13.603Z,11.06
2023-02-19T07:50:14.112Z,11.14
2023-02-19T07:51:13.730Z,11.09
2023-02-19T07:52:13.428Z,11.13
2023-02-19T07:53:13.367Z,11.07
2023-02-19T07:54:13.310Z,11.13
2023-02-19T07:55:13.261Z,11.13
2023-02-19T07:56:13.188Z,11.16
2023-02-19T07:57:13.154Z,11.01
2023-02-19T07:58:13.081Z,11.14
2023-02-19T07:59:13.023Z,11.13
2023-02-19T08:00:12.964Z,11.13
2023-02-19T08:01:13.377Z,11.06
2023-02-19T08:02:12.847Z,11.06
2023-02-19T08:03:12.825Z,11.03
2023-02-19T08:04:12.728Z,11.09
2023-02-19T08:05:12.670Z,11.09
2023-02-19T08:06:12.713Z,11.02
2023-02-19T08:07:12.559Z,11.07
2023-02-19T08:08:12.518Z,11.07
2023-02-19T08:09:12.454Z,11.09
2023-02-19T08:10:12.378Z,11.14
2023-02-19T08:11:12.517Z,11.03
2023-02-19T08:12:12.269Z,11.07
2023-02-19T08:13:12.217Z,11.11
2023-02-19T08:14:12.152Z,11.07
2023-02-19T08:15:12.092Z,11.10
2023-02-19T08:16:18.709Z,11.11
2023-02-19T08:17:12.027Z,11.10
2023-02-19T08:18:11.922Z,11.03
2023-02-19T08:19:11.862Z,11.03
2023-02-19T08:20:11.811Z,10.99
2023-02-19T08:21:12.057Z,11.06
2023-02-19T08:22:11.685Z,10.99
2023-02-19T08:23:11.633Z,11.09
2023-02-19T08:24:11.567Z,11.09
2023-02-19T08:25:11.510Z,11.07
2023-02-19T08:26:11.448Z,11.02
2023-02-19T08:27:11.411Z,11.14
2023-02-19T08:28:11.335Z,11.13
2023-02-19T08:29:11.284Z,11.13
2023-02-19T08:30:11.255Z,11.11
2023-02-19T08:31:11.562Z,11.02
2023-02-19T08:32:11.109Z,11.06
2023-02-19T08:33:11.046Z,11.03
2023-02-19T08:34:11.005Z,11.06
2023-02-19T08:35:10.927Z,11.06
2023-02-19T08:36:10.874Z,11.03
2023-02-19T08:37:10.816Z,11.09
2023-02-19T08:38:10.750Z,11.03
2023-02-19T08:39:10.708Z,11.10
2023-02-19T08:40:10.640Z,11.06
2023-02-19T08:41:10.975Z,11.07
2023-02-19T08:42:10.519Z,11.11
2023-02-19T08:43:10.466Z,11.01
2023-02-19T08:44:10.414Z,11.06
2023-02-19T08:45:10.345Z,11.02
2023-02-19T08:46:10.504Z,11.09
2023-02-19T08:47:10.257Z,11.03
2023-02-19T08:48:10.183Z,11.06
2023-02-19T08:49:10.116Z,11.06
2023-02-19T08:50:10.054Z,11.02
2023-02-19T08:51:10.371Z,11.02
2023-02-19T08:52:09.942Z,11.03
2023-02-19T08:53:09.884Z,11.02
2023-02-19T08:54:09.822Z,11.10
2023-02-19T08:55:09.769Z,11.03
2023-02-19T08:56:09.710Z,11.06
2023-02-19T08:57:09.648Z,11.06
2023-02-19T08:58:09.590Z,11.06
2023-02-19T08:59:09.528Z,11.03
2023-02-19T09:00:09.483Z,11.13
2023-02-19T09:01:09.853Z,11.07
2023-02-19T09:02:09.354Z,11.14
2023-02-19T09:03:09.299Z,11.10
2023-02-19T09:04:09.357Z,11.01
2023-02-19T09:05:09.183Z,11.02
2023-02-19T09:06:09.554Z,11.02
2023-02-19T09:07:09.064Z,11.01
2023-02-19T09:08:09.013Z,11.03
2023-02-19T09:09:08.951Z,11.06
2023-02-19T09:10:08.897Z,11.02
2023-02-19T09:11:09.082Z,11.10
2023-02-19T09:12:08.775Z,11.10
2023-02-19T09:13:08.728Z,11.16
2023-02-19T09:14:08.664Z,11.13
2023-02-19T09:15:08.604Z,11.03
2023-02-19T09:16:08.646Z,11.03
2023-02-19T09:17:08.499Z,11.06
2023-02-19T09:18:08.428Z,11.03
2023-02-19T09:19:08.375Z,11.06
2023-02-19T09:20:08.308Z,10.99
2023-02-19T09:21:08.446Z,11.07
2023-02-19T09:22:08.201Z,11.02
2023-02-19T09:23:08.139Z,11.01
2023-02-19T09:24:08.078Z,11.02
2023-02-19T09:25:08.027Z,11.06
2023-02-19T09:26:07.965Z,11.07
2023-02-19T09:27:07.906Z,11.10
2023-02-19T09:28:07.846Z,11.14
2023-02-19T09:29:07.804Z,11.06
2023-02-19T09:30:07.767Z,11.06
2023-02-19T09:31:07.838Z,11.03
2023-02-19T09:32:07.650Z,11.16
2023-02-19T09:33:07.560Z,11.13
2023-02-19T09:34:07.499Z,11.02
2023-02-19T09:35:07.447Z,11.06
2023-02-19T09:36:07.386Z,11.06
2023-02-19T09:37:07.331Z,11.10
2023-02-19T09:38:07.276Z,11.07
2023-02-19T09:39:07.216Z,11.13
2023-02-19T09:40:07.156Z,11.01
2023-02-19T09:41:07.109Z,10.99
2023-02-19T09:42:07.037Z,11.06
2023-02-19T09:43:06.985Z,10.99
2023-02-19T09:44:06.924Z,11.06
2023-02-19T09:45:06.863Z,11.01
2023-02-19T09:46:06.835Z,11.06
2023-02-19T09:47:06.749Z,11.11
2023-02-19T09:48:06.690Z,11.03
2023-02-19T09:49:06.630Z,11.06
2023-02-19T09:50:06.571Z,11.06
2023-02-19T09:51:06.518Z,11.13
2023-02-19T09:52:06.456Z,11.11
2023-02-19T09:53:06.400Z,11.02
2023-02-19T09:54:06.337Z,11.03
2023-02-19T09:55:06.280Z,11.03
2023-02-19T09:56:06.227Z,11.03
2023-02-19T09:57:06.167Z,11.10
2023-02-19T09:58:06.107Z,11.14
2023-02-19T09:59:06.046Z,11.06
2023-02-19T10:00:06.001Z,11.10
2023-02-19T10:01:05.936Z,11.02
2023-02-19T10:02:05.885Z,11.01
2023-02-19T10:03:05.819Z,11.14
2023-02-19T10:04:05.757Z,11.02
2023-02-19T10:05:05.754Z,11.10
2023-02-19T10:06:05.651Z,11.09
2023-02-19T10:07:33.410Z,11.01
2023-02-19T10:08:05.527Z,11.02
2023-02-19T10:09:05.504Z,11.09
2023-02-19T10:10:05.420Z,11.07
2023-02-19T10:11:05.361Z,11.09
2023-02-19T10:12:05.290Z,11.06
2023-02-19T10:13:05.233Z,11.06
2023-02-19T10:14:05.195Z,11.06
2023-02-19T10:15:05.125Z,11.09
2023-02-19T10:16:05.109Z,11.17
2023-02-19T10:17:05.000Z,11.14
2023-02-19T10:18:04.943Z,11.11
2023-02-19T10:19:04.904Z,11.17
2023-02-19T10:20:04.834Z,11.16
2023-02-19T10:21:04.767Z,11.03
2023-02-19T10:22:04.716Z,11.13
2023-02-19T10:23:04.653Z,11.16
2023-02-19T10:24:04.592Z,11.11
2023-02-19T10:25:04.538Z,11.09
2023-02-19T10:26:04.571Z,11.07
2023-02-19T10:27:04.423Z,11.06
2023-02-19T10:28:04.387Z,11.01
2023-02-19T10:29:04.307Z,11.13
2023-02-19T10:30:04.348Z,11.11
2023-02-19T10:31:04.233Z,11.17
2023-02-19T10:32:04.175Z,11.13
2023-02-19T10:33:04.111Z,11.17
2023-02-19T10:34:04.044Z,11.17
2023-02-19T10:35:03.978Z,11.13
2023-02-19T10:36:03.929Z,11.09
2023-02-19T10:37:03.886Z,11.16
2023-02-19T10:38:03.789Z,11.10
2023-02-19T10:39:03.741Z,11.11
2023-02-19T10:40:03.670Z,11.11
2023-02-19T10:41:03.608Z,11.19
2023-02-19T10:42:03.550Z,11.14
2023-02-19T10:43:03.497Z,11.09
2023-02-19T10:44:14.574Z,11.17
2023-02-19T10:45:03.389Z,11.09
2023-02-19T10:46:03.391Z,11.02
2023-02-19T10:47:03.290Z,11.16
2023-02-19T10:48:03.205Z,11.13
2023-02-19T10:49:03.155Z,11.11
2023-02-19T10:50:04.759Z,11.11
2023-02-19T10:51:03.074Z,11.11
2023-02-19T10:52:02.978Z,11.11
2023-02-19T10:53:02.916Z,11.09
2023-02-19T10:54:02.902Z,11.13
2023-02-19T10:55:02.799Z,11.06
2023-02-19T10:56:02.740Z,11.17
2023-02-19T10:57:02.713Z,11.19
2023-02-19T10:58:02.625Z,11.14
2023-02-19T10:59:02.580Z,11.06
2023-02-19T11:00:02.503Z,11.14
2023-02-19T11:01:04.329Z,11.17
2023-02-19T11:02:02.490Z,11.14
2023-02-19T11:03:02.372Z,11.10
2023-02-19T11:04:02.284Z,11.13
2023-02-19T11:05:02.243Z,11.06
2023-02-19T11:06:02.160Z,11.06
2023-02-19T11:07:02.105Z,11.14
2023-02-19T11:08:02.039Z,11.13
2023-02-19T11:09:02.164Z,11.16
2023-02-19T11:10:01.930Z,11.20
2023-02-19T11:11:01.876Z,11.17
2023-02-19T11:12:01.810Z,11.17
2023-02-19T11:13:01.769Z,11.16
2023-02-19T11:14:01.709Z,11.14
2023-02-19T11:15:01.654Z,11.11
2023-02-19T11:16:01.638Z,11.11
2023-02-19T11:17:01.516Z,11.09
2023-02-19T11:18:01.463Z,11.17
2023-02-19T11:19:01.412Z,11.14
2023-02-19T11:20:01.357Z,11.13
2023-02-19T11:21:01.294Z,11.16
2023-02-19T11:22:01.230Z,11.17
2023-02-19T11:23:01.169Z,11.11
2023-02-19T11:24:01.108Z,11.09
2023-02-19T11:25:01.082Z,11.16
2023-02-19T11:26:01.002Z,11.13
2023-02-19T11:27:00.943Z,11.16
2023-02-19T11:28:00.876Z,11.13
2023-02-19T11:29:00.822Z,11.14
2023-02-19T11:30:00.792Z,11.06
2023-02-19T11:31:00.723Z,11.11
2023-02-19T11:32:00.714Z,11.14
2023-02-19T11:33:00.596Z,11.03
2023-02-19T11:34:00.540Z,11.10
2023-02-19T11:35:00.481Z,11.16
2023-02-19T11:36:00.445Z,11.13
2023-02-19T11:37:00.357Z,11.17
2023-02-19T11:38:00.318Z,11.13
2023-02-19T11:39:00.247Z,11.11
2023-02-19T11:40:00.194Z,11.06
2023-02-19T11:41:00.125Z,11.14
2023-02-19T11:42:00.089Z,11.09
2023-02-19T11:43:00.036Z,11.10
2023-02-19T11:43:59.952Z,11.17
2023-02-19T11:44:59.905Z,11.13
2023-02-19T11:45:59.845Z,11.19
2023-02-19T11:46:59.780Z,11.13
2023-02-19T11:47:59.726Z,11.19
2023-02-19T11:48:59.668Z,11.19
2023-02-19T11:49:59.620Z,11.13
2023-02-19T11:50:59.552Z,11.19
2023-02-19T11:51:59.493Z,11.13
2023-02-19T11:52:59.443Z,11.16
2023-02-19T11:53:59.376Z,11.11
2023-02-19T11:54:59.319Z,11.14
2023-02-19T11:55:59.264Z,11.16
2023-02-19T11:56:59.200Z,11.13
2023-02-19T11:57:59.140Z,11.17
2023-02-19T11:59:00.923Z,11.11
2023-02-19T11:59:59.028Z,11.14
2023-02-19T12:00:58.969Z,11.14
2023-02-19T12:01:58.972Z,11.14
2023-02-19T12:02:58.854Z,11.09
2023-02-19T12:03:58.798Z,11.11
2023-02-19T12:04:58.744Z,11.11
2023-02-19T12:05:58.680Z,11.14
2023-02-19T12:06:58.620Z,11.10
2023-02-19T12:07:58.559Z,11.11
2023-02-19T12:08:58.499Z,11.17
2023-02-19T12:09:58.447Z,11.11
2023-02-19T12:10:58.385Z,11.11
2023-02-19T12:11:58.324Z,11.13
2023-02-19T12:12:58.272Z,11.16
2023-02-19T12:13:58.209Z,11.07
2023-02-19T12:14:58.158Z,11.13
2023-02-19T12:15:58.103Z,11.16
2023-02-19T12:16:58.036Z,11.14
2023-02-19T12:17:57.978Z,11.16
2023-02-19T12:18:57.928Z,11.07
2023-02-19T12:19:57.860Z,11.09
2023-02-19T12:20:57.805Z,11.19
2023-02-19T12:21:57.748Z,11.19
2023-02-19T12:22:57.688Z,11.11
2023-02-19T12:23:57.634Z,11.19
2023-02-19T12:24:57.580Z,11.13
2023-02-19T12:25:57.511Z,11.09
2023-02-19T12:26:57.466Z,11.11
2023-02-19T12:27:57.400Z,11.14
2023-02-19T12:28:57.341Z,11.11
2023-02-19T12:29:57.287Z,11.21
2023-02-19T12:30:57.289Z,11.20
2023-02-19T12:31:57.192Z,11.21
2023-02-19T12:32:57.114Z,11.16
2023-02-19T12:33:57.051Z,11.14
2023-02-19T12:34:56.994Z,11.21
2023-02-19T12:35:56.935Z,11.21
2023-02-19T12:36:56.880Z,11.24
2023-02-19T12:37:56.821Z,11.25
2023-02-19T12:38:56.762Z,11.14
2023-02-19T12:39:56.699Z,11.10
2023-02-19T12:40:56.653Z,11.20
2023-02-19T12:41:56.590Z,11.21
2023-02-19T12:42:56.536Z,11.19
2023-02-19T12:43:56.467Z,11.17
2023-02-19T12:44:56.415Z,11.13
2023-02-19T12:45:56.410Z,11.11
2023-02-19T12:46:56.296Z,11.14
2023-02-19T12:47:56.239Z,11.17
2023-02-19T12:48:56.177Z,11.19
2023-02-19T12:49:56.125Z,11.24
2023-02-19T12:50:56.068Z,11.17
2023-02-19T12:51:56.010Z,11.13